Time;durP1;ratioP1;P1;durP2;ratioP2;P2;SDS_P1;SDS_P2;PMS_P1;PMS_P2;Temp;Humidity;BMP_temperature;BMP_pressure;BME280_temperature;BME280_humidity;BME280_pressure;Samples;Min_cycle;Max_cycle;Signal;HPM_P1;HPM_P2
2022/04/10 00:01:56;;;;;;;;;;;7.50;60.50;;;;;;4998652;28;19917;-90
2022/04/10 00:04:22;;;;;;;;;;;7.50;60.20;;;;;;5013602;28;19944;-89
2022/04/10 00:06:48;;;;;;;;;;;7.50;60.00;;;;;;4999859;28;19922;-89
2022/04/10 00:09:14;;;;;;;;;;;7.50;59.80;;;;;;4991950;28;19918;-90
2022/04/10 00:11:40;;;;;;;;;;;7.50;59.70;;;;;;5015325;28;19914;-90
2022/04/10 00:14:05;;;;;;;;;;;7.40;59.30;;;;;;5014112;28;20381;-90
2022/04/10 00:16:31;;;;;;;;;;;7.40;59.10;;;;;;5018805;28;19913;-91
2022/04/10 00:19:01;;;;;;;;;;;7.40;59.20;;;;;;4997525;28;19921;-89
2022/04/10 00:21:27;;;;;;;;;;;7.40;59.40;;;;;;4991044;28;19957;-89
2022/04/10 00:23:53;;;;;;;;;;;7.40;59.80;;;;;;4994452;28;20396;-89
2022/04/10 00:26:19;;;;;;;;;;;7.40;60.00;;;;;;4991090;28;19921;-90
2022/04/10 00:28:44;;;;;;;;;;;7.40;60.20;;;;;;5015906;28;19940;-89
2022/04/10 00:31:10;;;;;;;;;;;7.50;60.40;;;;;;4998947;28;19924;-90
2022/04/10 00:33:35;;;;;;;;;;;7.50;59.80;;;;;;5013819;28;19967;-90
2022/04/10 00:36:01;;;;;;;;;;;7.40;59.70;;;;;;5022834;28;19924;-89
2022/04/10 00:38:27;;;;;;;;;;;7.40;59.60;;;;;;5012913;28;19914;-90
2022/04/10 00:40:52;;;;;;;;;;;7.40;59.60;;;;;;4999263;28;20001;-90
2022/04/10 00:43:18;;;;;;;;;;;7.40;59.70;;;;;;4998605;28;19920;-89
2022/04/10 00:45:43;;;;;;;;;;;7.30;59.40;;;;;;5017331;28;19918;-89
2022/04/10 00:48:09;;;;;;;;;;;7.30;59.40;;;;;;5014918;28;19953;-88
2022/04/10 00:50:35;;;;;;;;;;;7.30;59.50;;;;;;4990735;28;19925;-89
2022/04/10 00:53:00;;;;;;;;;;;7.30;59.50;;;;;;5014614;28;19913;-90
2022/04/10 00:55:26;;;;;;;;;;;7.30;59.70;;;;;;5003074;28;19917;-89
2022/04/10 00:57:51;;;;;;;;;;;7.30;59.60;;;;;;4993159;28;19917;-90
2022/04/10 01:00:17;;;;;;;;;;;7.30;59.50;;;;;;4998805;28;19913;-88
2022/04/10 01:02:43;;;;;;;;;;;7.30;59.50;;;;;;4989956;28;19921;-89
2022/04/10 01:05:08;;;;;;;;;;;7.30;59.50;;;;;;5008638;28;19964;-90
2022/04/10 01:07:34;;;;;;;;;;;7.20;59.30;;;;;;4995715;28;20132;-88
2022/04/10 01:10:00;;;;;;;;;;;7.20;59.30;;;;;;4995634;28;19918;-90
2022/04/10 01:12:25;;;;;;;;;;;7.20;59.40;;;;;;4997883;28;19972;-89
2022/04/10 01:14:51;;;;;;;;;;;7.20;59.20;;;;;;5015368;28;20008;-90
2022/04/10 01:17:17;;;;;;;;;;;7.20;59.30;;;;;;4995995;28;19924;-89
2022/04/10 01:19:43;;;;;;;;;;;7.20;59.50;;;;;;4994882;28;19957;-88
2022/04/10 01:22:09;;;;;;;;;;;7.20;59.70;;;;;;5011641;28;19925;-89
2022/04/10 01:24:38;;;;;;;;;;;7.20;59.60;;;;;;4992880;28;19925;-89
2022/04/10 01:27:04;;;;;;;;;;;7.20;59.50;;;;;;4995957;28;19914;-90
2022/04/10 01:29:29;;;;;;;;;;;7.10;59.50;;;;;;4998600;28;20384;-88
2022/04/10 01:31:55;;;;;;;;;;;7.10;59.50;;;;;;5016034;28;19924;-89
2022/04/10 01:34:21;;;;;;;;;;;7.10;59.50;;;;;;5015634;28;19922;-90
2022/04/10 01:36:46;;;;;;;;;;;7.10;59.40;;;;;;5015308;28;19917;-90
2022/04/10 01:39:15;;;;;;;;;;;7.10;59.50;;;;;;4997336;28;20284;-90
2022/04/10 01:41:41;;;;;;;;;;;7.20;59.70;;;;;;5015379;28;19943;-89
2022/04/10 01:44:07;;;;;;;;;;;7.20;60.00;;;;;;5010219;28;19918;-90
2022/04/10 01:46:32;;;;;;;;;;;7.20;60.20;;;;;;4997887;28;20617;-89
2022/04/10 01:48:58;;;;;;;;;;;7.30;60.40;;;;;;4982375;28;19913;-89
2022/04/10 01:51:24;;;;;;;;;;;7.40;60.70;;;;;;5015026;28;19964;-90
2022/04/10 01:53:51;;;;;;;;;;;7.40;60.80;;;;;;5016191;28;19917;-90
2022/04/10 01:56:16;;;;;;;;;;;7.50;61.00;;;;;;4997173;28;19917;-89
2022/04/10 01:58:43;;;;;;;;;;;7.50;61.10;;;;;;5015868;28;19963;-89
2022/04/10 02:01:09;;;;;;;;;;;7.70;61.40;;;;;;5013565;28;19913;-89
2022/04/10 02:03:35;;;;;;;;;;;7.70;61.40;;;;;;5012915;28;20036;-90
2022/04/10 02:06:01;;;;;;;;;;;7.80;61.40;;;;;;4997399;28;19929;-90
2022/04/10 02:08:27;;;;;;;;;;;7.80;61.00;;;;;;5015143;28;19917;-89
2022/04/10 02:10:53;;;;;;;;;;;7.70;60.50;;;;;;4998397;28;19924;-88
2022/04/10 02:13:19;;;;;;;;;;;7.70;60.20;;;;;;4987283;28;19914;-89
2022/04/10 02:15:45;;;;;;;;;;;7.70;60.10;;;;;;4991998;28;19985;-89
2022/04/10 02:18:10;;;;;;;;;;;7.70;60.10;;;;;;5007097;28;19956;-90
2022/04/10 02:20:36;;;;;;;;;;;7.70;60.30;;;;;;5006454;28;19917;-89
2022/04/10 02:23:01;;;;;;;;;;;7.80;60.30;;;;;;5014418;28;19913;-88
2022/04/10 02:25:27;;;;;;;;;;;7.70;60.10;;;;;;5013674;28;20063;-89
2022/04/10 02:27:52;;;;;;;;;;;7.70;59.60;;;;;;5013033;28;19945;-89
2022/04/10 02:30:18;;;;;;;;;;;7.60;59.40;;;;;;5004507;28;19929;-88
2022/04/10 02:32:43;;;;;;;;;;;7.60;59.30;;;;;;4995695;28;19921;-89
2022/04/10 02:35:09;;;;;;;;;;;7.50;59.30;;;;;;5018899;28;19913;-89
2022/04/10 02:37:35;;;;;;;;;;;7.40;59.40;;;;;;5015506;28;19929;-89
2022/04/10 02:40:02;;;;;;;;;;;7.40;59.30;;;;;;5015419;28;19920;-89
2022/04/10 02:42:28;;;;;;;;;;;7.40;59.40;;;;;;5012922;28;20280;-89
2022/04/10 02:44:53;;;;;;;;;;;7.30;59.50;;;;;;4999330;28;20021;-88
2022/04/10 02:47:19;;;;;;;;;;;7.30;59.40;;;;;;4978404;28;19941;-89
2022/04/10 02:49:44;;;;;;;;;;;7.30;59.40;;;;;;4995835;28;19913;-90
2022/04/10 02:52:10;;;;;;;;;;;7.30;59.60;;;;;;5003938;28;19914;-89
2022/04/10 02:54:36;;;;;;;;;;;7.20;59.50;;;;;;4996792;28;19913;-89
2022/04/10 02:57:01;;;;;;;;;;;7.20;59.30;;;;;;4996064;28;20065;-88
2022/04/10 02:59:27;;;;;;;;;;;7.20;59.10;;;;;;5006510;28;19918;-89
2022/04/10 03:01:52;;;;;;;;;;;7.20;59.00;;;;;;4994751;28;19913;-89
2022/04/10 03:04:18;;;;;;;;;;;7.10;59.10;;;;;;5013170;28;19924;-89
2022/04/10 03:06:43;;;;;;;;;;;7.10;59.30;;;;;;4995839;28;20277;-90
2022/04/10 03:09:12;;;;;;;;;;;7.10;59.40;;;;;;4997037;28;19922;-89
2022/04/10 03:11:38;;;;;;;;;;;7.10;59.40;;;;;;4997823;28;19925;-88
2022/04/10 03:14:03;;;;;;;;;;;7.10;59.30;;;;;;5013509;28;20266;-89
2022/04/10 03:16:28;;;;;;;;;;;7.00;59.40;;;;;;5007417;28;19917;-89
2022/04/10 03:18:54;;;;;;;;;;;7.00;59.10;;;;;;5008352;28;19924;-90
2022/04/10 03:21:19;;;;;;;;;;;7.00;59.30;;;;;;4996393;28;20416;-88
2022/04/10 03:23:45;;;;;;;;;;;7.00;59.40;;;;;;5010051;28;19997;-89
2022/04/10 03:26:10;;;;;;;;;;;7.00;59.40;;;;;;4994239;28;19964;-89
2022/04/10 03:28:36;;;;;;;;;;;7.00;59.50;;;;;;5016632;28;19913;-89
2022/04/10 03:31:02;;;;;;;;;;;7.00;59.40;;;;;;5015416;28;20000;-89
2022/04/10 03:33:27;;;;;;;;;;;6.90;59.30;;;;;;4997568;28;20354;-89
2022/04/10 03:35:53;;;;;;;;;;;6.90;59.50;;;;;;4999733;28;20042;-89
2022/04/10 03:38:19;;;;;;;;;;;6.90;59.50;;;;;;5016883;28;19914;-88
2022/04/10 03:40:45;;;;;;;;;;;6.90;59.50;;;;;;5000371;28;19922;-89
2022/04/10 03:43:14;;;;;;;;;;;6.90;59.70;;;;;;5015771;28;19914;-89
2022/04/10 03:45:39;;;;;;;;;;;6.80;59.60;;;;;;4998645;28;19918;-89
2022/04/10 03:48:08;;;;;;;;;;;6.80;59.80;;;;;;5017108;28;19945;-89
2022/04/10 03:50:34;;;;;;;;;;;6.90;59.60;;;;;;5021923;28;19917;-90
2022/04/10 03:53:04;;;;;;;;;;;6.80;59.60;;;;;;5008114;28;19920;-90
2022/04/10 03:55:30;;;;;;;;;;;6.80;59.70;;;;;;5020493;28;19914;-89
2022/04/10 03:57:55;;;;;;;;;;;6.80;59.70;;;;;;5017116;28;20332;-89
2022/04/10 04:00:20;;;;;;;;;;;6.80;59.60;;;;;;4998837;28;19925;-89
2022/04/10 04:02:46;;;;;;;;;;;6.80;59.50;;;;;;4999399;28;19928;-89
2022/04/10 04:05:12;;;;;;;;;;;6.80;59.70;;;;;;5010526;28;19961;-89
2022/04/10 04:07:38;;;;;;;;;;;6.80;59.70;;;;;;5014323;28;19921;-90
2022/04/10 04:10:05;;;;;;;;;;;6.80;59.90;;;;;;4997317;28;19918;-88
2022/04/10 04:12:30;;;;;;;;;;;6.80;59.80;;;;;;5007872;28;19937;-90
2022/04/10 04:14:56;;;;;;;;;;;6.80;59.90;;;;;;4995445;28;19913;-89
2022/04/10 04:17:21;;;;;;;;;;;6.80;59.80;;;;;;5008675;28;19922;-88
2022/04/10 04:19:49;;;;;;;;;;;6.80;59.80;;;;;;4991099;28;19967;-89
2022/04/10 04:22:18;;;;;;;;;;;6.80;59.60;;;;;;5010348;28;19920;-89
2022/04/10 04:24:43;;;;;;;;;;;6.80;59.30;;;;;;5010660;28;19922;-89
2022/04/10 04:27:09;;;;;;;;;;;6.70;59.30;;;;;;4995243;28;19925;-89
2022/04/10 04:29:35;;;;;;;;;;;6.70;59.30;;;;;;5015758;28;19917;-89
2022/04/10 04:32:00;;;;;;;;;;;6.80;59.50;;;;;;5008601;28;19926;-90
2022/04/10 04:34:26;;;;;;;;;;;6.70;59.30;;;;;;5015003;28;19913;-90
2022/04/10 04:36:51;;;;;;;;;;;6.70;59.20;;;;;;5018569;28;19922;-89
2022/04/10 04:39:17;;;;;;;;;;;6.70;59.40;;;;;;4983805;28;19968;-89
2022/04/10 04:41:42;;;;;;;;;;;6.70;59.30;;;;;;5017101;28;20024;-89
2022/04/10 04:44:08;;;;;;;;;;;6.60;59.00;;;;;;5007251;28;20304;-90
2022/04/10 04:46:33;;;;;;;;;;;6.60;59.10;;;;;;5010511;28;19921;-90
2022/04/10 04:48:59;;;;;;;;;;;6.60;59.40;;;;;;4987811;28;19914;-90
2022/04/10 04:51:24;;;;;;;;;;;6.60;59.30;;;;;;4997540;28;19941;-89
2022/04/10 04:53:50;;;;;;;;;;;6.60;59.40;;;;;;5013529;28;19913;-90
2022/04/10 04:56:15;;;;;;;;;;;6.60;59.50;;;;;;5013544;28;20877;-90
2022/04/10 04:58:41;;;;;;;;;;;6.70;60.00;;;;;;4994353;28;19984;-89
2022/04/10 05:01:07;;;;;;;;;;;6.70;60.30;;;;;;5012437;28;19913;-89
2022/04/10 05:03:32;;;;;;;;;;;6.80;60.50;;;;;;5002018;28;19918;-90
2022/04/10 05:05:58;;;;;;;;;;;6.90;60.80;;;;;;4998555;28;19922;-90
2022/04/10 05:08:23;;;;;;;;;;;7.00;61.10;;;;;;4987486;28;20285;-89
2022/04/10 05:10:48;;;;;;;;;;;7.10;61.40;;;;;;5009946;28;20373;-90
2022/04/10 05:13:14;;;;;;;;;;;7.30;61.70;;;;;;4997846;28;20373;-89
2022/04/10 05:15:39;;;;;;;;;;;7.50;62.00;;;;;;5016648;28;20020;-90
2022/04/10 05:18:05;;;;;;;;;;;7.60;62.10;;;;;;4999740;28;20278;-90
2022/04/10 05:20:31;;;;;;;;;;;7.80;62.00;;;;;;4998430;28;19917;-90
2022/04/10 05:22:56;;;;;;;;;;;7.90;61.70;;;;;;4995944;28;19921;-90
2022/04/10 05:25:22;;;;;;;;;;;8.00;61.90;;;;;;5014745;28;19925;-89
2022/04/10 05:27:47;;;;;;;;;;;8.20;62.30;;;;;;4999418;28;19925;-89
2022/04/10 05:30:13;;;;;;;;;;;8.50;62.80;;;;;;5015851;28;20321;-89
2022/04/10 05:32:42;;;;;;;;;;;8.80;63.30;;;;;;5000098;28;20262;-89
2022/04/10 05:35:08;;;;;;;;;;;9.10;63.80;;;;;;4996837;28;20289;-89
2022/04/10 05:37:33;;;;;;;;;;;9.50;64.20;;;;;;5014561;28;19922;-89
2022/04/10 05:39:59;;;;;;;;;;;9.90;64.60;;;;;;4999109;28;19920;-91
2022/04/10 05:42:24;;;;;;;;;;;10.30;64.80;;;;;;4998323;28;19921;-90
2022/04/10 05:44:49;;;;;;;;;;;10.70;64.70;;;;;;5015561;28;19928;-89
2022/04/10 05:47:15;;;;;;;;;;;11.00;65.00;;;;;;5011266;28;19982;-89
2022/04/10 05:49:40;;;;;;;;;;;11.50;65.50;;;;;;4998210;28;19921;-89
2022/04/10 05:52:07;;;;;;;;;;;11.80;65.90;;;;;;4998276;28;20000;-90
2022/04/10 05:54:33;;;;;;;;;;;12.30;65.90;;;;;;4987198;28;19914;-91
2022/04/10 05:56:58;;;;;;;;;;;12.70;66.10;;;;;;5007656;28;19932;-90
2022/04/10 05:59:24;;;;;;;;;;;13.10;66.00;;;;;;5015144;28;20012;-89
2022/04/10 06:01:49;;;;;;;;;;;13.50;66.10;;;;;;5015281;28;20408;-91
2022/04/10 06:04:16;;;;;;;;;;;13.90;65.60;;;;;;4999783;28;19922;-91
2022/04/10 06:06:42;;;;;;;;;;;14.30;65.40;;;;;;5000195;28;19925;-90
2022/04/10 06:09:07;;;;;;;;;;;14.60;65.90;;;;;;4999987;28;19921;-90
2022/04/10 06:11:34;;;;;;;;;;;15.10;66.70;;;;;;5017478;28;19921;-89
2022/04/10 06:13:59;;;;;;;;;;;15.50;66.90;;;;;;5017556;28;19968;-89
2022/04/10 06:16:24;;;;;;;;;;;16.00;67.10;;;;;;5015661;28;19925;-90
2022/04/10 06:18:50;;;;;;;;;;;16.40;66.60;;;;;;5016791;28;19925;-90
2022/04/10 06:21:15;;;;;;;;;;;16.80;66.50;;;;;;4997992;28;19918;-90
2022/04/10 06:23:41;;;;;;;;;;;17.20;66.40;;;;;;5000645;28;19913;-90
2022/04/10 06:26:06;;;;;;;;;;;17.60;66.10;;;;;;5015068;28;19936;-91
2022/04/10 06:28:32;;;;;;;;;;;18.00;66.40;;;;;;5016532;28;19996;-91
2022/04/10 06:30:57;;;;;;;;;;;18.30;66.20;;;;;;4999453;28;20016;-90
2022/04/10 06:33:22;;;;;;;;;;;18.70;65.90;;;;;;5015574;28;20338;-89
2022/04/10 06:35:48;;;;;;;;;;;18.90;65.90;;;;;;5026869;28;19945;-90
2022/04/10 06:38:13;;;;;;;;;;;19.30;66.10;;;;;;5015305;28;19909;-91
2022/04/10 06:40:39;;;;;;;;;;;19.60;66.80;;;;;;4998932;28;19960;-90
2022/04/10 06:43:09;;;;;;;;;;;20.10;66.80;;;;;;5015518;28;19917;-89
2022/04/10 06:45:34;;;;;;;;;;;20.50;67.20;;;;;;4998377;28;20130;-92
2022/04/10 06:48:00;;;;;;;;;;;20.80;64.70;;;;;;5026746;28;19918;-91
2022/04/10 06:50:26;;;;;;;;;;;20.80;63.10;;;;;;4998492;28;19917;-89
2022/04/10 06:52:51;;;;;;;;;;;20.60;61.20;;;;;;4999443;28;19910;-90
2022/04/10 06:55:17;;;;;;;;;;;20.20;57.80;;;;;;5016896;28;19995;-91
2022/04/10 06:57:42;;;;;;;;;;;19.90;60.90;;;;;;5018731;28;19921;-90
2022/04/10 07:00:08;;;;;;;;;;;20.00;64.20;;;;;;5018797;28;19906;-89
2022/04/10 07:02:34;;;;;;;;;;;20.40;65.60;;;;;;5002771;28;19913;-89
2022/04/10 07:04:59;;;;;;;;;;;20.70;64.40;;;;;;5000651;28;19968;-90
2022/04/10 07:07:24;;;;;;;;;;;20.90;63.90;;;;;;4999553;28;19928;-89
2022/04/10 07:09:50;;;;;;;;;;;21.20;64.60;;;;;;5020130;28;19972;-90
2022/04/10 07:12:15;;;;;;;;;;;21.30;64.40;;;;;;5020191;28;19914;-91
2022/04/10 07:14:41;;;;;;;;;;;21.70;64.30;;;;;;4996416;28;19976;-91
2022/04/10 07:17:06;;;;;;;;;;;21.70;60.90;;;;;;5012283;28;19940;-90
2022/04/10 07:19:32;;;;;;;;;;;21.50;60.20;;;;;;5016990;28;19921;-91
2022/04/10 07:24:41;;;;;;;;;;;20.90;58.20;;;;;;5013494;28;19928;-92
2022/04/10 07:27:07;;;;;;;;;;;20.50;57.20;;;;;;5002945;28;19921;-90
2022/04/10 07:29:32;;;;;;;;;;;20.10;56.70;;;;;;4995792;28;19914;-90
2022/04/10 07:31:58;;;;;;;;;;;19.80;57.80;;;;;;4983343;28;19918;-90
2022/04/10 07:34:23;;;;;;;;;;;19.70;60.90;;;;;;5000653;28;19961;-90
2022/04/10 07:36:49;;;;;;;;;;;19.70;61.40;;;;;;4999548;28;19957;-90
2022/04/10 07:39:14;;;;;;;;;;;19.80;62.50;;;;;;4999345;28;19918;-90
2022/04/10 07:41:39;;;;;;;;;;;20.10;64.60;;;;;;4999703;28;20384;-90
2022/04/10 07:44:05;;;;;;;;;;;20.40;62.60;;;;;;4998351;28;19914;-92
2022/04/10 07:49:14;;;;;;;;;;;20.70;61.50;;;;;;5000133;28;19932;-89
2022/04/10 07:51:40;;;;;;;;;;;20.80;61.50;;;;;;4998291;28;20347;-90
2022/04/10 07:54:05;;;;;;;;;;;20.80;60.90;;;;;;4998270;28;20004;-90
2022/04/10 07:56:31;;;;;;;;;;;20.90;60.50;;;;;;4997463;28;19930;-90
2022/04/10 07:58:56;;;;;;;;;;;21.00;61.30;;;;;;4998143;28;20009;-90
2022/04/10 08:01:22;;;;;;;;;;;21.40;62.10;;;;;;4997717;28;19910;-92
2022/04/10 08:03:52;;;;;;;;;;;21.70;60.40;;;;;;4982584;28;20298;-91
2022/04/10 08:06:18;;;;;;;;;;;21.80;60.30;;;;;;5000437;28;19922;-89
2022/04/10 08:08:43;;;;;;;;;;;21.90;59.40;;;;;;4983146;28;19961;-90
2022/04/10 08:11:09;;;;;;;;;;;21.80;57.50;;;;;;4999631;28;20348;-91
2022/04/10 08:13:34;;;;;;;;;;;21.80;58.00;;;;;;5000526;28;19918;-91
2022/04/10 08:16:01;;;;;;;;;;;21.70;57.20;;;;;;5001899;28;20404;-89
2022/04/10 08:18:27;;;;;;;;;;;21.60;57.30;;;;;;5002256;28;19917;-90
2022/04/10 08:20:52;;;;;;;;;;;21.50;56.20;;;;;;5001565;28;19917;-90
2022/04/10 08:23:18;;;;;;;;;;;21.50;58.40;;;;;;5018627;28;20258;-90
2022/04/10 08:25:43;;;;;;;;;;;21.60;57.40;;;;;;5000010;28;20374;-91
2022/04/10 08:28:09;;;;;;;;;;;21.50;55.80;;;;;;5019152;28;19919;-89
2022/04/10 08:30:34;;;;;;;;;;;21.40;55.30;;;;;;4999922;28;19918;-89
2022/04/10 08:33:00;;;;;;;;;;;21.30;54.60;;;;;;4998831;28;19922;-87
2022/04/10 08:35:26;;;;;;;;;;;21.10;54.80;;;;;;5016195;28;19913;-88
2022/04/10 08:37:51;;;;;;;;;;;21.10;55.60;;;;;;4984319;28;20293;-91
2022/04/10 08:40:17;;;;;;;;;;;21.00;55.80;;;;;;5001558;28;20025;-91
2022/04/10 08:43:02;;;;;;;;;;;21.20;56.50;;;;;;5023121;28;19921;-89
2022/04/10 08:45:28;;;;;;;;;;;21.30;55.60;;;;;;5003390;28;19918;-91
2022/04/10 08:47:54;;;;;;;;;;;21.40;56.90;;;;;;5017630;28;19918;-91
2022/04/10 08:50:19;;;;;;;;;;;21.40;54.50;;;;;;5020808;28;19940;-91
2022/04/10 08:52:45;;;;;;;;;;;21.50;55.80;;;;;;5021463;28;19977;-91
2022/04/10 08:55:11;;;;;;;;;;;21.60;55.40;;;;;;5004270;28;19972;-90
2022/04/10 08:57:39;;;;;;;;;;;21.70;54.50;;;;;;5016942;28;20289;-92
2022/04/10 09:00:05;;;;;;;;;;;21.80;53.90;;;;;;5000955;28;19914;-89
2022/04/10 09:02:44;;;;;;;;;;;21.90;55.00;;;;;;5016211;28;19913;-91
2022/04/10 09:05:14;;;;;;;;;;;22.20;54.40;;;;;;5019284;28;20348;-91
2022/04/10 09:07:40;;;;;;;;;;;22.40;54.00;;;;;;5019498;28;19917;-91
2022/04/10 09:10:06;;;;;;;;;;;22.80;53.80;;;;;;5001106;28;19917;-90
2022/04/10 09:12:34;;;;;;;;;;;23.00;52.70;;;;;;5019704;28;19913;-90
2022/04/10 09:15:03;;;;;;;;;;;23.10;52.00;;;;;;4985112;28;19918;-90
2022/04/10 09:17:29;;;;;;;;;;;23.10;51.70;;;;;;5001934;28;19972;-92
2022/04/10 09:19:55;;;;;;;;;;;23.10;50.70;;;;;;5000150;28;19914;-91
2022/04/10 09:22:27;;;;;;;;;;;23.20;51.20;;;;;;5018752;28;19926;-91
2022/04/10 09:25:01;;;;;;;;;;;23.40;51.60;;;;;;5001820;28;19993;-93
2022/04/10 09:27:35;;;;;;;;;;;23.80;50.50;;;;;;5000635;28;19914;-92
2022/04/10 09:30:00;;;;;;;;;;;24.30;49.70;;;;;;5016418;28;19921;-89
2022/04/10 09:32:35;;;;;;;;;;;24.50;47.00;;;;;;4999085;28;20263;-90
2022/04/10 09:35:01;;;;;;;;;;;24.50;45.50;;;;;;4998079;28;19928;-90
2022/04/10 09:37:27;;;;;;;;;;;24.30;46.30;;;;;;5018640;28;19918;-90
2022/04/10 09:39:53;;;;;;;;;;;24.30;46.00;;;;;;5002894;28;19914;-92
2022/04/10 09:42:29;;;;;;;;;;;24.20;45.50;;;;;;5003307;28;19928;-92
2022/04/10 09:44:54;;;;;;;;;;;24.10;46.50;;;;;;5001054;28;19935;-92
2022/04/10 09:47:24;;;;;;;;;;;24.30;45.90;;;;;;5017199;28;20004;-90
2022/04/10 09:49:52;;;;;;;;;;;24.70;45.40;;;;;;4998727;28;19917;-91
2022/04/10 09:52:19;;;;;;;;;;;24.90;44.20;;;;;;5000230;28;19917;-90
2022/04/10 09:54:46;;;;;;;;;;;24.80;42.10;;;;;;5019027;28;19999;-90
2022/04/10 09:57:14;;;;;;;;;;;24.50;42.80;;;;;;5001797;28;20360;-89
2022/04/10 09:59:44;;;;;;;;;;;24.20;43.20;;;;;;5018313;28;19913;-91
2022/04/10 10:02:19;;;;;;;;;;;24.00;41.90;;;;;;5000019;28;19917;-90
2022/04/10 10:04:47;;;;;;;;;;;24.00;42.40;;;;;;4998914;28;19996;-91
2022/04/10 10:07:15;;;;;;;;;;;24.40;42.30;;;;;;5016948;28;20019;-90
2022/04/10 10:09:41;;;;;;;;;;;24.90;40.70;;;;;;4998503;28;19918;-90
2022/04/10 10:12:07;;;;;;;;;;;25.50;40.40;;;;;;5013305;28;20479;-90
2022/04/10 10:14:33;;;;;;;;;;;25.60;37.40;;;;;;5001176;28;19932;-92
2022/04/10 10:17:00;;;;;;;;;;;25.60;35.50;;;;;;5024888;28;19902;-91
2022/04/10 10:19:28;;;;;;;;;;;25.50;35.90;;;;;;5016226;28;19936;-92
2022/04/10 10:21:54;;;;;;;;;;;25.80;35.80;;;;;;5019555;28;19921;-91
2022/04/10 10:24:21;;;;;;;;;;;26.20;35.00;;;;;;5000997;28;20003;-92
2022/04/10 10:27:02;;;;;;;;;;;26.90;34.40;;;;;;4998413;28;19936;-90
2022/04/10 10:29:36;;;;;;;;;;;27.40;32.60;;;;;;5015814;28;20277;-92
2022/04/10 10:32:08;;;;;;;;;;;28.00;31.00;;;;;;5000689;28;19999;-91
2022/04/10 10:34:34;;;;;;;;;;;28.40;29.30;;;;;;5023163;28;20417;-93
2022/04/10 10:37:03;;;;;;;;;;;28.30;28.50;;;;;;4999023;28;19913;-91
2022/04/10 10:39:30;;;;;;;;;;;28.10;28.10;;;;;;4997723;28;19920;-90
2022/04/10 10:42:08;;;;;;;;;;;27.60;27.80;;;;;;4997715;28;20016;-89
2022/04/10 10:44:34;;;;;;;;;;;26.90;28.10;;;;;;5010980;28;19910;-91
2022/04/10 10:47:00;;;;;;;;;;;26.10;29.00;;;;;;5000020;28;19945;-91
2022/04/10 10:49:28;;;;;;;;;;;24.80;32.30;;;;;;5001204;28;19910;-92
2022/04/10 10:51:55;;;;;;;;;;;22.40;33.70;;;;;;4985042;28;20228;-93
2022/04/10 10:54:29;;;;;;;;;;;20.70;38.20;;;;;;5004334;28;19909;-92
2022/04/10 10:56:56;;;;;;;;;;;19.80;42.40;;;;;;5019843;28;19918;-92
2022/04/10 10:59:36;;;;;;;;;;;19.10;44.50;;;;;;5000205;28;19977;-91
2022/04/10 11:02:02;;;;;;;;;;;18.70;47.30;;;;;;4999374;28;19972;-92
2022/04/10 11:04:32;;;;;;;;;;;18.50;48.30;;;;;;5000388;28;19921;-92
2022/04/10 11:07:11;;;;;;;;;;;18.20;47.40;;;;;;5017201;28;19931;-90
2022/04/10 11:09:45;;;;;;;;;;;17.60;47.60;;;;;;4998198;28;19924;-93
2022/04/10 11:12:14;;;;;;;;;;;16.80;48.30;;;;;;5019624;28;19913;-95
2022/04/10 11:14:41;;;;;;;;;;;16.20;50.20;;;;;;5020007;28;19971;-92
2022/04/10 11:17:14;;;;;;;;;;;16.10;53.30;;;;;;5014426;28;19921;-94
2022/04/10 11:19:41;;;;;;;;;;;16.70;55.90;;;;;;4993260;28;19936;-93
2022/04/10 11:22:07;;;;;;;;;;;17.50;56.40;;;;;;5013280;28;19952;-92
2022/04/10 11:24:36;;;;;;;;;;;18.40;57.00;;;;;;4999103;28;19944;-94
2022/04/10 11:27:03;;;;;;;;;;;19.10;54.50;;;;;;5014051;28;19921;-91
2022/04/10 11:29:31;;;;;;;;;;;19.80;56.10;;;;;;4996001;28;19924;-92
2022/04/10 11:32:02;;;;;;;;;;;20.50;55.30;;;;;;5013911;28;19936;-91
2022/04/10 11:34:29;;;;;;;;;;;21.10;55.50;;;;;;4996666;28;19918;-93
2022/04/10 11:36:55;;;;;;;;;;;21.80;55.40;;;;;;5019998;28;19963;-91
2022/04/10 11:39:28;;;;;;;;;;;22.30;54.50;;;;;;5002343;28;20071;-92
2022/04/10 11:41:57;;;;;;;;;;;22.90;54.20;;;;;;4998458;28;19925;-94
2022/04/10 11:44:23;;;;;;;;;;;23.00;53.00;;;;;;4998167;28;19980;-92
2022/04/10 11:46:49;;;;;;;;;;;22.50;52.60;;;;;;5002184;28;19917;-91
2022/04/10 11:49:17;;;;;;;;;;;21.70;52.90;;;;;;5020243;28;19980;-93
2022/04/10 11:51:49;;;;;;;;;;;21.80;53.30;;;;;;5001233;28;19917;-93
2022/04/10 11:54:22;;;;;;;;;;;22.10;53.70;;;;;;5010519;28;19913;-91
2022/04/10 11:56:47;;;;;;;;;;;22.80;54.80;;;;;;5015913;28;20310;-90
2022/04/10 11:59:13;;;;;;;;;;;23.30;53.50;;;;;;5007158;28;19924;-94
2022/04/10 12:01:39;;;;;;;;;;;23.80;53.60;;;;;;5002755;28;19913;-90
2022/04/10 12:04:06;;;;;;;;;;;24.30;53.60;;;;;;5000882;28;19913;-93
2022/04/10 12:06:31;;;;;;;;;;;25.00;53.40;;;;;;5018958;28;20265;-92
2022/04/10 12:08:57;;;;;;;;;;;25.30;50.10;;;;;;5001589;28;19993;-90
2022/04/10 12:11:23;;;;;;;;;;;25.40;49.10;;;;;;5003106;28;19921;-91
2022/04/10 12:13:49;;;;;;;;;;;24.70;45.10;;;;;;5025342;28;19992;-90
2022/04/10 12:16:16;;;;;;;;;;;24.00;47.90;;;;;;5000611;28;19924;-91
2022/04/10 12:19:03;;;;;;;;;;;23.20;47.50;;;;;;5016687;28;20000;-91
2022/04/10 12:21:29;;;;;;;;;;;22.40;48.20;;;;;;5004521;28;19918;-91
2022/04/10 12:23:57;;;;;;;;;;;21.60;50.10;;;;;;4999586;28;19941;-93
2022/04/10 12:26:23;;;;;;;;;;;21.00;50.40;;;;;;5000736;28;19987;-94
2022/04/10 12:28:48;;;;;;;;;;;20.30;50.60;;;;;;5014778;28;19918;-95
2022/04/10 12:31:14;;;;;;;;;;;19.70;51.90;;;;;;4996764;28;19917;-91
2022/04/10 12:33:40;;;;;;;;;;;19.30;52.20;;;;;;5003785;28;19914;-94
2022/04/10 12:36:15;;;;;;;;;;;19.00;51.80;;;;;;4997157;28;19950;-93
2022/04/10 12:38:41;;;;;;;;;;;18.70;52.30;;;;;;5013853;28;19913;-95
2022/04/10 12:41:06;;;;;;;;;;;18.30;53.60;;;;;;5001080;28;19944;-92
2022/04/10 12:43:32;;;;;;;;;;;18.10;55.20;;;;;;4994926;28;19917;-92
2022/04/10 12:46:07;;;;;;;;;;;18.10;56.20;;;;;;4999909;28;19961;-90
2022/04/10 12:48:33;;;;;;;;;;;18.70;57.80;;;;;;4996474;28;19921;-91
2022/04/10 12:51:17;;;;;;;;;;;19.90;57.90;;;;;;5012034;28;19917;-91
2022/04/10 12:53:46;;;;;;;;;;;20.30;57.50;;;;;;5016287;28;19917;-90
2022/04/10 12:56:19;;;;;;;;;;;20.30;56.70;;;;;;5013678;28;19918;-91
2022/04/10 12:58:47;;;;;;;;;;;20.10;55.60;;;;;;5015126;28;19948;-91
2022/04/10 13:01:29;;;;;;;;;;;19.70;51.60;;;;;;5010965;28;20464;-91
2022/04/10 13:03:56;;;;;;;;;;;19.00;49.80;;;;;;5001087;28;19937;-89
2022/04/10 13:06:26;;;;;;;;;;;18.30;51.70;;;;;;4999588;28;19932;-91
2022/04/10 13:09:08;;;;;;;;;;;18.00;52.60;;;;;;5017309;28;19928;-94
2022/04/10 13:11:37;;;;;;;;;;;18.40;53.10;;;;;;5016059;28;19913;-91
2022/04/10 13:14:06;;;;;;;;;;;18.70;52.00;;;;;;4998980;28;19917;-92
2022/04/10 13:16:32;;;;;;;;;;;18.70;52.20;;;;;;5016608;28;19913;-93
2022/04/10 13:19:05;;;;;;;;;;;18.70;52.10;;;;;;4994750;28;20012;-92
2022/04/10 13:21:32;;;;;;;;;;;18.20;52.50;;;;;;4973482;28;19914;-91
2022/04/10 13:23:58;;;;;;;;;;;17.80;53.90;;;;;;4999352;28;19918;-92
2022/04/10 13:26:24;;;;;;;;;;;17.50;54.60;;;;;;4981683;28;20338;-96
2022/04/10 13:28:49;;;;;;;;;;;17.20;54.50;;;;;;5002780;28;19968;-92
2022/04/10 13:31:15;;;;;;;;;;;16.60;53.10;;;;;;4987681;28;19922;-95
2022/04/10 13:33:40;;;;;;;;;;;15.90;52.40;;;;;;4987478;28;19912;-94
2022/04/10 13:36:06;;;;;;;;;;;15.30;54.40;;;;;;4970825;28;19977;-96
2022/04/10 13:38:31;;;;;;;;;;;14.90;55.90;;;;;;5002609;28;19921;-92
2022/04/10 13:40:57;;;;;;;;;;;14.80;57.70;;;;;;4999313;28;20286;-92
2022/04/10 13:43:22;;;;;;;;;;;15.00;58.40;;;;;;4996429;28;19957;-94
2022/04/10 13:45:48;;;;;;;;;;;15.20;58.60;;;;;;4984571;28;19925;-94
2022/04/10 13:48:13;;;;;;;;;;;15.30;58.80;;;;;;4998283;28;19914;-93
2022/04/10 13:50:39;;;;;;;;;;;15.40;58.90;;;;;;4997817;28;19914;-95
2022/04/10 13:53:05;;;;;;;;;;;15.30;59.20;;;;;;5001501;28;19925;-96
2022/04/10 13:55:30;;;;;;;;;;;15.30;59.60;;;;;;4967491;28;19974;-92
2022/04/10 13:57:56;;;;;;;;;;;15.30;59.80;;;;;;4968632;28;19968;-92
2022/04/10 14:00:21;;;;;;;;;;;15.20;60.00;;;;;;4979520;28;19932;-92
2022/04/10 14:02:47;;;;;;;;;;;15.10;60.00;;;;;;4976821;28;19984;-93
2022/04/10 14:05:12;;;;;;;;;;;15.00;60.50;;;;;;4994339;28;19922;-91
2022/04/10 14:07:38;;;;;;;;;;;14.90;60.40;;;;;;4973344;28;20015;-90
2022/04/10 14:10:03;;;;;;;;;;;14.80;60.70;;;;;;4996586;28;19945;-92
2022/04/10 14:12:29;;;;;;;;;;;14.80;61.10;;;;;;4997378;28;19920;-93
2022/04/10 14:14:54;;;;;;;;;;;14.70;60.90;;;;;;4996112;28;19937;-91
2022/04/10 14:17:20;;;;;;;;;;;14.70;60.80;;;;;;4995802;28;19945;-93
2022/04/10 14:19:45;;;;;;;;;;;14.70;61.30;;;;;;4988678;28;19925;-92
2022/04/10 14:22:11;;;;;;;;;;;14.70;61.50;;;;;;4999721;28;19917;-93
2022/04/10 14:24:36;;;;;;;;;;;14.70;61.60;;;;;;4999577;28;19914;-93